<?xml version="1.0" encoding="UTF-8"?>
<gpx xmlns="http://www.topografix.com/GPX/1/1" xmlns:xsi="http://www.w3.org/2001/XMLSchema-instance" version="1.1" creator="Trace de Trail" xsi:schemaLocation="http://www.topografix.com/GPX/1/1 http://www.topografix.com/GPX/1/1/gpx.xsd">
  <metadata>
    <name>seyne-la-forestiere</name>
    <desc>Parcours créé sur Trace de Trail</desc>
    <link href="https://tracedetrail.fr/fr/trace/283147">
      <text>Cartographie du parcours</text>
    </link>
    <time>2025-04-02T06:52:18+00:00</time>
  </metadata>
  <trk>
    <name>Seyne-Les-Alpes - Forestiere sur TraceDeTrail.fr</name>
    <src>Trace de Trail</src>
    <trkseg>
      <trkpt lat="44.35849" lon="6.39115">
        <ele>1587</ele>
        <time>2025-04-02T06:52:18+00:00</time>
      </trkpt>
      <trkpt lat="44.35858" lon="6.39104">
        <ele>1587</ele>
        <time>2025-04-02T06:52:21+00:00</time>
      </trkpt>
      <trkpt lat="44.35868" lon="6.39088">
        <ele>1588</ele>
        <time>2025-04-02T06:52:24+00:00</time>
      </trkpt>
      <trkpt lat="44.3588" lon="6.39081">
        <ele>1586</ele>
        <time>2025-04-02T06:52:27+00:00</time>
      </trkpt>
      <trkpt lat="44.35902" lon="6.39071">
        <ele>1589</ele>
        <time>2025-04-02T06:52:30+00:00</time>
      </trkpt>
      <trkpt lat="44.35933" lon="6.39057">
        <ele>1589</ele>
        <time>2025-04-02T06:52:33+00:00</time>
      </trkpt>
      <trkpt lat="44.35937" lon="6.39053">
        <ele>1589</ele>
        <time>2025-04-02T06:52:36+00:00</time>
      </trkpt>
      <trkpt lat="44.3594" lon="6.39048">
        <ele>1588</ele>
        <time>2025-04-02T06:52:39+00:00</time>
      </trkpt>
      <trkpt lat="44.35944" lon="6.39036">
        <ele>1587</ele>
        <time>2025-04-02T06:52:42+00:00</time>
      </trkpt>
      <trkpt lat="44.35947" lon="6.39022">
        <ele>1585</ele>
        <time>2025-04-02T06:52:45+00:00</time>
      </trkpt>
      <trkpt lat="44.35953" lon="6.39006">
        <ele>1584</ele>
        <time>2025-04-02T06:52:48+00:00</time>
      </trkpt>
      <trkpt lat="44.35966" lon="6.38993">
        <ele>1587</ele>
        <time>2025-04-02T06:52:51+00:00</time>
      </trkpt>
      <trkpt lat="44.3597" lon="6.38991">
        <ele>1584</ele>
        <time>2025-04-02T06:52:54+00:00</time>
      </trkpt>
      <trkpt lat="44.35975" lon="6.38991">
        <ele>1585</ele>
        <time>2025-04-02T06:52:57+00:00</time>
      </trkpt>
      <trkpt lat="44.35981" lon="6.38993">
        <ele>1588</ele>
        <time>2025-04-02T06:53:00+00:00</time>
      </trkpt>
      <trkpt lat="44.35999" lon="6.39002">
        <ele>1590</ele>
        <time>2025-04-02T06:53:03+00:00</time>
      </trkpt>
      <trkpt lat="44.36007" lon="6.39004">
        <ele>1592</ele>
        <time>2025-04-02T06:53:06+00:00</time>
      </trkpt>
      <trkpt lat="44.36011" lon="6.39004">
        <ele>1595</ele>
        <time>2025-04-02T06:53:09+00:00</time>
      </trkpt>
      <trkpt lat="44.36012" lon="6.39002">
        <ele>1595</ele>
        <time>2025-04-02T06:53:12+00:00</time>
      </trkpt>
      <trkpt lat="44.36016" lon="6.38973">
        <ele>1590</ele>
        <time>2025-04-02T06:53:15+00:00</time>
      </trkpt>
      <trkpt lat="44.36016" lon="6.38968">
        <ele>1590</ele>
        <time>2025-04-02T06:53:18+00:00</time>
      </trkpt>
      <trkpt lat="44.36017" lon="6.38961">
        <ele>1590</ele>
        <time>2025-04-02T06:53:21+00:00</time>
      </trkpt>
      <trkpt lat="44.36019" lon="6.38954">
        <ele>1589</ele>
        <time>2025-04-02T06:53:24+00:00</time>
      </trkpt>
      <trkpt lat="44.36025" lon="6.38941">
        <ele>1590</ele>
        <time>2025-04-02T06:53:27+00:00</time>
      </trkpt>
      <trkpt lat="44.36029" lon="6.38935">
        <ele>1588</ele>
        <time>2025-04-02T06:53:30+00:00</time>
      </trkpt>
      <trkpt lat="44.36049" lon="6.38888">
        <ele>1588</ele>
        <time>2025-04-02T06:53:33+00:00</time>
      </trkpt>
      <trkpt lat="44.36059" lon="6.38876">
        <ele>1586</ele>
        <time>2025-04-02T06:53:36+00:00</time>
      </trkpt>
      <trkpt lat="44.36066" lon="6.38871">
        <ele>1590</ele>
        <time>2025-04-02T06:53:39+00:00</time>
      </trkpt>
      <trkpt lat="44.36074" lon="6.38868">
        <ele>1588</ele>
        <time>2025-04-02T06:53:42+00:00</time>
      </trkpt>
      <trkpt lat="44.36079" lon="6.38867">
        <ele>1588</ele>
        <time>2025-04-02T06:53:45+00:00</time>
      </trkpt>
      <trkpt lat="44.36084" lon="6.38868">
        <ele>1590</ele>
        <time>2025-04-02T06:53:48+00:00</time>
      </trkpt>
      <trkpt lat="44.36108" lon="6.38863">
        <ele>1593</ele>
        <time>2025-04-02T06:53:51+00:00</time>
      </trkpt>
      <trkpt lat="44.36111" lon="6.38864">
        <ele>1594</ele>
        <time>2025-04-02T06:53:54+00:00</time>
      </trkpt>
      <trkpt lat="44.36115" lon="6.38864">
        <ele>1594</ele>
        <time>2025-04-02T06:53:57+00:00</time>
      </trkpt>
      <trkpt lat="44.36122" lon="6.38862">
        <ele>1595</ele>
        <time>2025-04-02T06:54:00+00:00</time>
      </trkpt>
      <trkpt lat="44.36126" lon="6.3886">
        <ele>1592</ele>
        <time>2025-04-02T06:54:03+00:00</time>
      </trkpt>
      <trkpt lat="44.36131" lon="6.38856">
        <ele>1593</ele>
        <time>2025-04-02T06:54:06+00:00</time>
      </trkpt>
      <trkpt lat="44.36134" lon="6.38852">
        <ele>1593</ele>
        <time>2025-04-02T06:54:09+00:00</time>
      </trkpt>
      <trkpt lat="44.36136" lon="6.38848">
        <ele>1591</ele>
        <time>2025-04-02T06:54:12+00:00</time>
      </trkpt>
      <trkpt lat="44.36146" lon="6.38836">
        <ele>1590</ele>
        <time>2025-04-02T06:54:15+00:00</time>
      </trkpt>
      <trkpt lat="44.36171" lon="6.38819">
        <ele>1588</ele>
        <time>2025-04-02T06:54:18+00:00</time>
      </trkpt>
      <trkpt lat="44.36197" lon="6.38805">
        <ele>1588</ele>
        <time>2025-04-02T06:54:21+00:00</time>
      </trkpt>
      <trkpt lat="44.36227" lon="6.38797">
        <ele>1588</ele>
        <time>2025-04-02T06:54:24+00:00</time>
      </trkpt>
      <trkpt lat="44.36233" lon="6.38796">
        <ele>1586</ele>
        <time>2025-04-02T06:54:27+00:00</time>
      </trkpt>
      <trkpt lat="44.36241" lon="6.38798">
        <ele>1585</ele>
        <time>2025-04-02T06:54:30+00:00</time>
      </trkpt>
      <trkpt lat="44.36248" lon="6.38802">
        <ele>1588</ele>
        <time>2025-04-02T06:54:33+00:00</time>
      </trkpt>
      <trkpt lat="44.36269" lon="6.38817">
        <ele>1588</ele>
        <time>2025-04-02T06:54:36+00:00</time>
      </trkpt>
      <trkpt lat="44.36286" lon="6.38834">
        <ele>1591</ele>
        <time>2025-04-02T06:54:39+00:00</time>
      </trkpt>
      <trkpt lat="44.36289" lon="6.38838">
        <ele>1591</ele>
        <time>2025-04-02T06:54:42+00:00</time>
      </trkpt>
      <trkpt lat="44.36294" lon="6.38843">
        <ele>1592</ele>
        <time>2025-04-02T06:54:45+00:00</time>
      </trkpt>
      <trkpt lat="44.36302" lon="6.38847">
        <ele>1591</ele>
        <time>2025-04-02T06:54:48+00:00</time>
      </trkpt>
      <trkpt lat="44.36308" lon="6.38849">
        <ele>1591</ele>
        <time>2025-04-02T06:54:51+00:00</time>
      </trkpt>
      <trkpt lat="44.36318" lon="6.3885">
        <ele>1589</ele>
        <time>2025-04-02T06:54:54+00:00</time>
      </trkpt>
      <trkpt lat="44.36345" lon="6.38844">
        <ele>1586</ele>
        <time>2025-04-02T06:54:57+00:00</time>
      </trkpt>
      <trkpt lat="44.36351" lon="6.38844">
        <ele>1585</ele>
        <time>2025-04-02T06:55:00+00:00</time>
      </trkpt>
      <trkpt lat="44.36357" lon="6.38846">
        <ele>1585</ele>
        <time>2025-04-02T06:55:03+00:00</time>
      </trkpt>
      <trkpt lat="44.36376" lon="6.3886">
        <ele>1586</ele>
        <time>2025-04-02T06:55:06+00:00</time>
      </trkpt>
      <trkpt lat="44.36385" lon="6.38868">
        <ele>1588</ele>
        <time>2025-04-02T06:55:09+00:00</time>
      </trkpt>
      <trkpt lat="44.36401" lon="6.38887">
        <ele>1592</ele>
        <time>2025-04-02T06:55:12+00:00</time>
      </trkpt>
      <trkpt lat="44.36404" lon="6.38892">
        <ele>1595</ele>
        <time>2025-04-02T06:55:15+00:00</time>
      </trkpt>
      <trkpt lat="44.36407" lon="6.38895">
        <ele>1595</ele>
        <time>2025-04-02T06:55:18+00:00</time>
      </trkpt>
      <trkpt lat="44.36412" lon="6.38899">
        <ele>1595</ele>
        <time>2025-04-02T06:55:21+00:00</time>
      </trkpt>
      <trkpt lat="44.36418" lon="6.38899">
        <ele>1591</ele>
        <time>2025-04-02T06:55:24+00:00</time>
      </trkpt>
      <trkpt lat="44.36424" lon="6.38896">
        <ele>1595</ele>
        <time>2025-04-02T06:55:27+00:00</time>
      </trkpt>
      <trkpt lat="44.36427" lon="6.3889">
        <ele>1593</ele>
        <time>2025-04-02T06:55:30+00:00</time>
      </trkpt>
      <trkpt lat="44.36428" lon="6.38886">
        <ele>1593</ele>
        <time>2025-04-02T06:55:33+00:00</time>
      </trkpt>
      <trkpt lat="44.36428" lon="6.38866">
        <ele>1590</ele>
        <time>2025-04-02T06:55:36+00:00</time>
      </trkpt>
      <trkpt lat="44.3643" lon="6.38859">
        <ele>1587</ele>
        <time>2025-04-02T06:55:39+00:00</time>
      </trkpt>
      <trkpt lat="44.36432" lon="6.38849">
        <ele>1587</ele>
        <time>2025-04-02T06:55:42+00:00</time>
      </trkpt>
      <trkpt lat="44.36435" lon="6.38841">
        <ele>1587</ele>
        <time>2025-04-02T06:55:45+00:00</time>
      </trkpt>
      <trkpt lat="44.36443" lon="6.38823">
        <ele>1585</ele>
        <time>2025-04-02T06:55:48+00:00</time>
      </trkpt>
      <trkpt lat="44.36454" lon="6.3879">
        <ele>1580</ele>
        <time>2025-04-02T06:55:51+00:00</time>
      </trkpt>
      <trkpt lat="44.36458" lon="6.3878">
        <ele>1578</ele>
        <time>2025-04-02T06:55:54+00:00</time>
      </trkpt>
      <trkpt lat="44.36465" lon="6.3877">
        <ele>1579</ele>
        <time>2025-04-02T06:55:57+00:00</time>
      </trkpt>
      <trkpt lat="44.36485" lon="6.38747">
        <ele>1580</ele>
        <time>2025-04-02T06:56:00+00:00</time>
      </trkpt>
      <trkpt lat="44.36497" lon="6.38731">
        <ele>1579</ele>
        <time>2025-04-02T06:56:03+00:00</time>
      </trkpt>
      <trkpt lat="44.36514" lon="6.38718">
        <ele>1580</ele>
        <time>2025-04-02T06:56:06+00:00</time>
      </trkpt>
      <trkpt lat="44.36526" lon="6.38713">
        <ele>1579</ele>
        <time>2025-04-02T06:56:09+00:00</time>
      </trkpt>
      <trkpt lat="44.36533" lon="6.38712">
        <ele>1580</ele>
        <time>2025-04-02T06:56:12+00:00</time>
      </trkpt>
      <trkpt lat="44.3654" lon="6.38713">
        <ele>1580</ele>
        <time>2025-04-02T06:56:15+00:00</time>
      </trkpt>
      <trkpt lat="44.36547" lon="6.38715">
        <ele>1581</ele>
        <time>2025-04-02T06:56:18+00:00</time>
      </trkpt>
      <trkpt lat="44.36558" lon="6.38721">
        <ele>1584</ele>
        <time>2025-04-02T06:56:21+00:00</time>
      </trkpt>
      <trkpt lat="44.3658" lon="6.3874">
        <ele>1588</ele>
        <time>2025-04-02T06:56:24+00:00</time>
      </trkpt>
      <trkpt lat="44.36595" lon="6.38744">
        <ele>1594</ele>
        <time>2025-04-02T06:56:27+00:00</time>
      </trkpt>
      <trkpt lat="44.36604" lon="6.38748">
        <ele>1595</ele>
        <time>2025-04-02T06:56:30+00:00</time>
      </trkpt>
      <trkpt lat="44.36616" lon="6.38747">
        <ele>1596</ele>
        <time>2025-04-02T06:56:33+00:00</time>
      </trkpt>
      <trkpt lat="44.36624" lon="6.38741">
        <ele>1597</ele>
        <time>2025-04-02T06:56:36+00:00</time>
      </trkpt>
      <trkpt lat="44.36635" lon="6.38735">
        <ele>1595</ele>
        <time>2025-04-02T06:56:39+00:00</time>
      </trkpt>
      <trkpt lat="44.36651" lon="6.38735">
        <ele>1598</ele>
        <time>2025-04-02T06:56:42+00:00</time>
      </trkpt>
      <trkpt lat="44.36664" lon="6.38737">
        <ele>1599</ele>
        <time>2025-04-02T06:56:45+00:00</time>
      </trkpt>
      <trkpt lat="44.36675" lon="6.38741">
        <ele>1603</ele>
        <time>2025-04-02T06:56:48+00:00</time>
      </trkpt>
      <trkpt lat="44.36691" lon="6.3875">
        <ele>1607</ele>
        <time>2025-04-02T06:56:51+00:00</time>
      </trkpt>
      <trkpt lat="44.36697" lon="6.38757">
        <ele>1608</ele>
        <time>2025-04-02T06:56:54+00:00</time>
      </trkpt>
      <trkpt lat="44.36704" lon="6.38761">
        <ele>1612</ele>
        <time>2025-04-02T06:56:57+00:00</time>
      </trkpt>
      <trkpt lat="44.36709" lon="6.3876">
        <ele>1611</ele>
        <time>2025-04-02T06:57:00+00:00</time>
      </trkpt>
      <trkpt lat="44.36712" lon="6.38758">
        <ele>1614</ele>
        <time>2025-04-02T06:57:03+00:00</time>
      </trkpt>
      <trkpt lat="44.36716" lon="6.38749">
        <ele>1608</ele>
        <time>2025-04-02T06:57:06+00:00</time>
      </trkpt>
      <trkpt lat="44.36715" lon="6.38744">
        <ele>1614</ele>
        <time>2025-04-02T06:57:09+00:00</time>
      </trkpt>
      <trkpt lat="44.36707" lon="6.38713">
        <ele>1607</ele>
        <time>2025-04-02T06:57:12+00:00</time>
      </trkpt>
      <trkpt lat="44.36698" lon="6.38678">
        <ele>1607</ele>
        <time>2025-04-02T06:57:15+00:00</time>
      </trkpt>
      <trkpt lat="44.36685" lon="6.3862">
        <ele>1607</ele>
        <time>2025-04-02T06:57:18+00:00</time>
      </trkpt>
      <trkpt lat="44.36673" lon="6.38574">
        <ele>1604</ele>
        <time>2025-04-02T06:57:21+00:00</time>
      </trkpt>
      <trkpt lat="44.36673" lon="6.38567">
        <ele>1606</ele>
        <time>2025-04-02T06:57:24+00:00</time>
      </trkpt>
      <trkpt lat="44.36674" lon="6.38559">
        <ele>1603</ele>
        <time>2025-04-02T06:57:27+00:00</time>
      </trkpt>
      <trkpt lat="44.36676" lon="6.38552">
        <ele>1603</ele>
        <time>2025-04-02T06:57:30+00:00</time>
      </trkpt>
      <trkpt lat="44.3668" lon="6.38546">
        <ele>1606</ele>
        <time>2025-04-02T06:57:33+00:00</time>
      </trkpt>
      <trkpt lat="44.36702" lon="6.38532">
        <ele>1606</ele>
        <time>2025-04-02T06:57:36+00:00</time>
      </trkpt>
      <trkpt lat="44.36731" lon="6.38517">
        <ele>1607</ele>
        <time>2025-04-02T06:57:39+00:00</time>
      </trkpt>
      <trkpt lat="44.36756" lon="6.38509">
        <ele>1607</ele>
        <time>2025-04-02T06:57:42+00:00</time>
      </trkpt>
      <trkpt lat="44.3677" lon="6.38506">
        <ele>1608</ele>
        <time>2025-04-02T06:57:45+00:00</time>
      </trkpt>
      <trkpt lat="44.36797" lon="6.38504">
        <ele>1611</ele>
        <time>2025-04-02T06:57:48+00:00</time>
      </trkpt>
      <trkpt lat="44.36811" lon="6.38504">
        <ele>1612</ele>
        <time>2025-04-02T06:57:51+00:00</time>
      </trkpt>
      <trkpt lat="44.36826" lon="6.38505">
        <ele>1612</ele>
        <time>2025-04-02T06:57:54+00:00</time>
      </trkpt>
      <trkpt lat="44.36858" lon="6.38513">
        <ele>1615</ele>
        <time>2025-04-02T06:57:57+00:00</time>
      </trkpt>
      <trkpt lat="44.36885" lon="6.38524">
        <ele>1617</ele>
        <time>2025-04-02T06:58:00+00:00</time>
      </trkpt>
      <trkpt lat="44.36893" lon="6.3853">
        <ele>1615</ele>
        <time>2025-04-02T06:58:03+00:00</time>
      </trkpt>
      <trkpt lat="44.36901" lon="6.38539">
        <ele>1619</ele>
        <time>2025-04-02T06:58:06+00:00</time>
      </trkpt>
      <trkpt lat="44.36907" lon="6.3855">
        <ele>1623</ele>
        <time>2025-04-02T06:58:09+00:00</time>
      </trkpt>
      <trkpt lat="44.36912" lon="6.38565">
        <ele>1630</ele>
        <time>2025-04-02T06:58:12+00:00</time>
      </trkpt>
      <trkpt lat="44.36914" lon="6.38571">
        <ele>1633</ele>
        <time>2025-04-02T06:58:15+00:00</time>
      </trkpt>
      <trkpt lat="44.36922" lon="6.38588">
        <ele>1635</ele>
        <time>2025-04-02T06:58:18+00:00</time>
      </trkpt>
      <trkpt lat="44.36926" lon="6.38593">
        <ele>1640</ele>
        <time>2025-04-02T06:58:21+00:00</time>
      </trkpt>
      <trkpt lat="44.36931" lon="6.38597">
        <ele>1640</ele>
        <time>2025-04-02T06:58:24+00:00</time>
      </trkpt>
      <trkpt lat="44.36934" lon="6.38598">
        <ele>1640</ele>
        <time>2025-04-02T06:58:27+00:00</time>
      </trkpt>
      <trkpt lat="44.36937" lon="6.38598">
        <ele>1640</ele>
        <time>2025-04-02T06:58:30+00:00</time>
      </trkpt>
      <trkpt lat="44.3694" lon="6.38597">
        <ele>1640</ele>
        <time>2025-04-02T06:58:33+00:00</time>
      </trkpt>
      <trkpt lat="44.36944" lon="6.38594">
        <ele>1640</ele>
        <time>2025-04-02T06:58:36+00:00</time>
      </trkpt>
      <trkpt lat="44.36947" lon="6.38589">
        <ele>1635</ele>
        <time>2025-04-02T06:58:39+00:00</time>
      </trkpt>
      <trkpt lat="44.36952" lon="6.38577">
        <ele>1633</ele>
        <time>2025-04-02T06:58:42+00:00</time>
      </trkpt>
      <trkpt lat="44.36957" lon="6.38567">
        <ele>1630</ele>
        <time>2025-04-02T06:58:45+00:00</time>
      </trkpt>
      <trkpt lat="44.36973" lon="6.38553">
        <ele>1628</ele>
        <time>2025-04-02T06:58:48+00:00</time>
      </trkpt>
      <trkpt lat="44.36992" lon="6.38547">
        <ele>1631</ele>
        <time>2025-04-02T06:58:51+00:00</time>
      </trkpt>
      <trkpt lat="44.37" lon="6.38547">
        <ele>1627</ele>
        <time>2025-04-02T06:58:54+00:00</time>
      </trkpt>
      <trkpt lat="44.37008" lon="6.3855">
        <ele>1628</ele>
        <time>2025-04-02T06:58:57+00:00</time>
      </trkpt>
      <trkpt lat="44.37032" lon="6.3856">
        <ele>1633</ele>
        <time>2025-04-02T06:59:00+00:00</time>
      </trkpt>
      <trkpt lat="44.37068" lon="6.38578">
        <ele>1640</ele>
        <time>2025-04-02T06:59:03+00:00</time>
      </trkpt>
      <trkpt lat="44.37099" lon="6.38591">
        <ele>1642</ele>
        <time>2025-04-02T06:59:06+00:00</time>
      </trkpt>
      <trkpt lat="44.37129" lon="6.38601">
        <ele>1643</ele>
        <time>2025-04-02T06:59:09+00:00</time>
      </trkpt>
      <trkpt lat="44.3716" lon="6.3862">
        <ele>1644</ele>
        <time>2025-04-02T06:59:12+00:00</time>
      </trkpt>
      <trkpt lat="44.37171" lon="6.38626">
        <ele>1646</ele>
        <time>2025-04-02T06:59:15+00:00</time>
      </trkpt>
      <trkpt lat="44.37183" lon="6.3863">
        <ele>1645</ele>
        <time>2025-04-02T06:59:18+00:00</time>
      </trkpt>
      <trkpt lat="44.37192" lon="6.38631">
        <ele>1646</ele>
        <time>2025-04-02T06:59:21+00:00</time>
      </trkpt>
      <trkpt lat="44.37198" lon="6.38633">
        <ele>1646</ele>
        <time>2025-04-02T06:59:24+00:00</time>
      </trkpt>
      <trkpt lat="44.37201" lon="6.38635">
        <ele>1645</ele>
        <time>2025-04-02T06:59:27+00:00</time>
      </trkpt>
      <trkpt lat="44.37209" lon="6.38641">
        <ele>1647</ele>
        <time>2025-04-02T06:59:30+00:00</time>
      </trkpt>
      <trkpt lat="44.37225" lon="6.38668">
        <ele>1650</ele>
        <time>2025-04-02T06:59:33+00:00</time>
      </trkpt>
      <trkpt lat="44.3724" lon="6.38699">
        <ele>1656</ele>
        <time>2025-04-02T06:59:36+00:00</time>
      </trkpt>
      <trkpt lat="44.37251" lon="6.38711">
        <ele>1658</ele>
        <time>2025-04-02T06:59:39+00:00</time>
      </trkpt>
      <trkpt lat="44.37261" lon="6.38731">
        <ele>1661</ele>
        <time>2025-04-02T06:59:42+00:00</time>
      </trkpt>
      <trkpt lat="44.37263" lon="6.38734">
        <ele>1661</ele>
        <time>2025-04-02T06:59:45+00:00</time>
      </trkpt>
      <trkpt lat="44.37273" lon="6.38743">
        <ele>1664</ele>
        <time>2025-04-02T06:59:48+00:00</time>
      </trkpt>
      <trkpt lat="44.3728" lon="6.38745">
        <ele>1660</ele>
        <time>2025-04-02T06:59:51+00:00</time>
      </trkpt>
      <trkpt lat="44.37285" lon="6.38745">
        <ele>1663</ele>
        <time>2025-04-02T06:59:54+00:00</time>
      </trkpt>
      <trkpt lat="44.37302" lon="6.3874">
        <ele>1659</ele>
        <time>2025-04-02T06:59:57+00:00</time>
      </trkpt>
      <trkpt lat="44.37307" lon="6.38736">
        <ele>1659</ele>
        <time>2025-04-02T07:00:00+00:00</time>
      </trkpt>
      <trkpt lat="44.37313" lon="6.38728">
        <ele>1657</ele>
        <time>2025-04-02T07:00:03+00:00</time>
      </trkpt>
      <trkpt lat="44.37318" lon="6.38714">
        <ele>1655</ele>
        <time>2025-04-02T07:00:06+00:00</time>
      </trkpt>
      <trkpt lat="44.37324" lon="6.38688">
        <ele>1650</ele>
        <time>2025-04-02T07:00:09+00:00</time>
      </trkpt>
      <trkpt lat="44.37331" lon="6.38664">
        <ele>1649</ele>
        <time>2025-04-02T07:00:12+00:00</time>
      </trkpt>
      <trkpt lat="44.3734" lon="6.38647">
        <ele>1648</ele>
        <time>2025-04-02T07:00:15+00:00</time>
      </trkpt>
      <trkpt lat="44.37343" lon="6.38637">
        <ele>1648</ele>
        <time>2025-04-02T07:00:18+00:00</time>
      </trkpt>
      <trkpt lat="44.37348" lon="6.38628">
        <ele>1647</ele>
        <time>2025-04-02T07:00:21+00:00</time>
      </trkpt>
      <trkpt lat="44.37357" lon="6.38614">
        <ele>1649</ele>
        <time>2025-04-02T07:00:24+00:00</time>
      </trkpt>
      <trkpt lat="44.37371" lon="6.38599">
        <ele>1650</ele>
        <time>2025-04-02T07:00:27+00:00</time>
      </trkpt>
      <trkpt lat="44.37391" lon="6.3858">
        <ele>1650</ele>
        <time>2025-04-02T07:00:30+00:00</time>
      </trkpt>
      <trkpt lat="44.37425" lon="6.3855">
        <ele>1650</ele>
        <time>2025-04-02T07:00:33+00:00</time>
      </trkpt>
      <trkpt lat="44.37451" lon="6.38531">
        <ele>1651</ele>
        <time>2025-04-02T07:00:36+00:00</time>
      </trkpt>
      <trkpt lat="44.37464" lon="6.3852">
        <ele>1652</ele>
        <time>2025-04-02T07:00:39+00:00</time>
      </trkpt>
      <trkpt lat="44.3747" lon="6.38517">
        <ele>1652</ele>
        <time>2025-04-02T07:00:42+00:00</time>
      </trkpt>
      <trkpt lat="44.3748" lon="6.38504">
        <ele>1652</ele>
        <time>2025-04-02T07:00:45+00:00</time>
      </trkpt>
      <trkpt lat="44.37485" lon="6.38494">
        <ele>1650</ele>
        <time>2025-04-02T07:00:48+00:00</time>
      </trkpt>
      <trkpt lat="44.37487" lon="6.38487">
        <ele>1652</ele>
        <time>2025-04-02T07:00:51+00:00</time>
      </trkpt>
      <trkpt lat="44.3749" lon="6.38465">
        <ele>1650</ele>
        <time>2025-04-02T07:00:54+00:00</time>
      </trkpt>
      <trkpt lat="44.37492" lon="6.38458">
        <ele>1651</ele>
        <time>2025-04-02T07:00:57+00:00</time>
      </trkpt>
      <trkpt lat="44.37497" lon="6.38446">
        <ele>1650</ele>
        <time>2025-04-02T07:01:00+00:00</time>
      </trkpt>
      <trkpt lat="44.37503" lon="6.38436">
        <ele>1650</ele>
        <time>2025-04-02T07:01:03+00:00</time>
      </trkpt>
      <trkpt lat="44.3751" lon="6.38429">
        <ele>1649</ele>
        <time>2025-04-02T07:01:06+00:00</time>
      </trkpt>
      <trkpt lat="44.37536" lon="6.38408">
        <ele>1650</ele>
        <time>2025-04-02T07:01:09+00:00</time>
      </trkpt>
      <trkpt lat="44.37563" lon="6.3838">
        <ele>1650</ele>
        <time>2025-04-02T07:01:12+00:00</time>
      </trkpt>
      <trkpt lat="44.376" lon="6.38347">
        <ele>1650</ele>
        <time>2025-04-02T07:01:15+00:00</time>
      </trkpt>
      <trkpt lat="44.37625" lon="6.38318">
        <ele>1651</ele>
        <time>2025-04-02T07:01:18+00:00</time>
      </trkpt>
      <trkpt lat="44.3764" lon="6.38303">
        <ele>1651</ele>
        <time>2025-04-02T07:01:21+00:00</time>
      </trkpt>
      <trkpt lat="44.37646" lon="6.38302">
        <ele>1653</ele>
        <time>2025-04-02T07:01:24+00:00</time>
      </trkpt>
      <trkpt lat="44.37653" lon="6.38302">
        <ele>1653</ele>
        <time>2025-04-02T07:01:27+00:00</time>
      </trkpt>
      <trkpt lat="44.37659" lon="6.38304">
        <ele>1653</ele>
        <time>2025-04-02T07:01:30+00:00</time>
      </trkpt>
      <trkpt lat="44.37664" lon="6.38308">
        <ele>1654</ele>
        <time>2025-04-02T07:01:33+00:00</time>
      </trkpt>
      <trkpt lat="44.37668" lon="6.38313">
        <ele>1655</ele>
        <time>2025-04-02T07:01:36+00:00</time>
      </trkpt>
      <trkpt lat="44.37679" lon="6.38334">
        <ele>1657</ele>
        <time>2025-04-02T07:01:39+00:00</time>
      </trkpt>
      <trkpt lat="44.37689" lon="6.38349">
        <ele>1659</ele>
        <time>2025-04-02T07:01:42+00:00</time>
      </trkpt>
      <trkpt lat="44.37701" lon="6.38359">
        <ele>1661</ele>
        <time>2025-04-02T07:01:45+00:00</time>
      </trkpt>
      <trkpt lat="44.37705" lon="6.38361">
        <ele>1662</ele>
        <time>2025-04-02T07:01:48+00:00</time>
      </trkpt>
      <trkpt lat="44.3771" lon="6.38361">
        <ele>1659</ele>
        <time>2025-04-02T07:01:51+00:00</time>
      </trkpt>
      <trkpt lat="44.37705" lon="6.38361">
        <ele>1662</ele>
        <time>2025-04-02T07:01:54+00:00</time>
      </trkpt>
      <trkpt lat="44.37701" lon="6.38359">
        <ele>1661</ele>
        <time>2025-04-02T07:01:57+00:00</time>
      </trkpt>
      <trkpt lat="44.37689" lon="6.38349">
        <ele>1659</ele>
        <time>2025-04-02T07:02:00+00:00</time>
      </trkpt>
      <trkpt lat="44.37679" lon="6.38334">
        <ele>1657</ele>
        <time>2025-04-02T07:02:03+00:00</time>
      </trkpt>
      <trkpt lat="44.37668" lon="6.38313">
        <ele>1655</ele>
        <time>2025-04-02T07:02:06+00:00</time>
      </trkpt>
      <trkpt lat="44.37664" lon="6.38308">
        <ele>1654</ele>
        <time>2025-04-02T07:02:09+00:00</time>
      </trkpt>
      <trkpt lat="44.37659" lon="6.38304">
        <ele>1653</ele>
        <time>2025-04-02T07:02:12+00:00</time>
      </trkpt>
      <trkpt lat="44.37653" lon="6.38302">
        <ele>1653</ele>
        <time>2025-04-02T07:02:15+00:00</time>
      </trkpt>
      <trkpt lat="44.37646" lon="6.38302">
        <ele>1653</ele>
        <time>2025-04-02T07:02:18+00:00</time>
      </trkpt>
      <trkpt lat="44.3764" lon="6.38303">
        <ele>1651</ele>
        <time>2025-04-02T07:02:21+00:00</time>
      </trkpt>
      <trkpt lat="44.37625" lon="6.38318">
        <ele>1651</ele>
        <time>2025-04-02T07:02:24+00:00</time>
      </trkpt>
      <trkpt lat="44.376" lon="6.38347">
        <ele>1650</ele>
        <time>2025-04-02T07:02:27+00:00</time>
      </trkpt>
      <trkpt lat="44.37563" lon="6.3838">
        <ele>1650</ele>
        <time>2025-04-02T07:02:30+00:00</time>
      </trkpt>
      <trkpt lat="44.37536" lon="6.38408">
        <ele>1649</ele>
        <time>2025-04-02T07:02:33+00:00</time>
      </trkpt>
      <trkpt lat="44.3751" lon="6.38429">
        <ele>1649</ele>
        <time>2025-04-02T07:02:36+00:00</time>
      </trkpt>
      <trkpt lat="44.37503" lon="6.38436">
        <ele>1650</ele>
        <time>2025-04-02T07:02:39+00:00</time>
      </trkpt>
      <trkpt lat="44.37497" lon="6.38446">
        <ele>1650</ele>
        <time>2025-04-02T07:02:42+00:00</time>
      </trkpt>
      <trkpt lat="44.37492" lon="6.38458">
        <ele>1651</ele>
        <time>2025-04-02T07:02:45+00:00</time>
      </trkpt>
      <trkpt lat="44.3749" lon="6.38465">
        <ele>1649</ele>
        <time>2025-04-02T07:02:48+00:00</time>
      </trkpt>
      <trkpt lat="44.3749" lon="6.3847">
        <ele>1649</ele>
        <time>2025-04-02T07:02:51+00:00</time>
      </trkpt>
      <trkpt lat="44.37487" lon="6.38487">
        <ele>1652</ele>
        <time>2025-04-02T07:02:54+00:00</time>
      </trkpt>
      <trkpt lat="44.37485" lon="6.38494">
        <ele>1653</ele>
        <time>2025-04-02T07:02:57+00:00</time>
      </trkpt>
      <trkpt lat="44.3748" lon="6.38504">
        <ele>1652</ele>
        <time>2025-04-02T07:03:00+00:00</time>
      </trkpt>
      <trkpt lat="44.3747" lon="6.38517">
        <ele>1652</ele>
        <time>2025-04-02T07:03:03+00:00</time>
      </trkpt>
      <trkpt lat="44.37464" lon="6.3852">
        <ele>1652</ele>
        <time>2025-04-02T07:03:06+00:00</time>
      </trkpt>
      <trkpt lat="44.37451" lon="6.38531">
        <ele>1651</ele>
        <time>2025-04-02T07:03:09+00:00</time>
      </trkpt>
      <trkpt lat="44.37425" lon="6.3855">
        <ele>1650</ele>
        <time>2025-04-02T07:03:12+00:00</time>
      </trkpt>
      <trkpt lat="44.37391" lon="6.3858">
        <ele>1650</ele>
        <time>2025-04-02T07:03:15+00:00</time>
      </trkpt>
      <trkpt lat="44.37371" lon="6.38599">
        <ele>1650</ele>
        <time>2025-04-02T07:03:18+00:00</time>
      </trkpt>
      <trkpt lat="44.37357" lon="6.38614">
        <ele>1647</ele>
        <time>2025-04-02T07:03:21+00:00</time>
      </trkpt>
      <trkpt lat="44.37348" lon="6.38628">
        <ele>1649</ele>
        <time>2025-04-02T07:03:24+00:00</time>
      </trkpt>
      <trkpt lat="44.37343" lon="6.38637">
        <ele>1648</ele>
        <time>2025-04-02T07:03:27+00:00</time>
      </trkpt>
      <trkpt lat="44.3734" lon="6.38647">
        <ele>1646</ele>
        <time>2025-04-02T07:03:30+00:00</time>
      </trkpt>
      <trkpt lat="44.37331" lon="6.38664">
        <ele>1649</ele>
        <time>2025-04-02T07:03:33+00:00</time>
      </trkpt>
      <trkpt lat="44.37324" lon="6.38688">
        <ele>1650</ele>
        <time>2025-04-02T07:03:36+00:00</time>
      </trkpt>
      <trkpt lat="44.37318" lon="6.38714">
        <ele>1655</ele>
        <time>2025-04-02T07:03:39+00:00</time>
      </trkpt>
      <trkpt lat="44.37313" lon="6.38728">
        <ele>1657</ele>
        <time>2025-04-02T07:03:42+00:00</time>
      </trkpt>
      <trkpt lat="44.37307" lon="6.38736">
        <ele>1659</ele>
        <time>2025-04-02T07:03:45+00:00</time>
      </trkpt>
      <trkpt lat="44.37302" lon="6.3874">
        <ele>1659</ele>
        <time>2025-04-02T07:03:48+00:00</time>
      </trkpt>
      <trkpt lat="44.37285" lon="6.38745">
        <ele>1660</ele>
        <time>2025-04-02T07:03:51+00:00</time>
      </trkpt>
      <trkpt lat="44.3728" lon="6.38745">
        <ele>1664</ele>
        <time>2025-04-02T07:03:54+00:00</time>
      </trkpt>
      <trkpt lat="44.37273" lon="6.38743">
        <ele>1664</ele>
        <time>2025-04-02T07:03:57+00:00</time>
      </trkpt>
      <trkpt lat="44.37263" lon="6.38734">
        <ele>1659</ele>
        <time>2025-04-02T07:04:00+00:00</time>
      </trkpt>
      <trkpt lat="44.37261" lon="6.38731">
        <ele>1661</ele>
        <time>2025-04-02T07:04:03+00:00</time>
      </trkpt>
      <trkpt lat="44.37251" lon="6.38711">
        <ele>1658</ele>
        <time>2025-04-02T07:04:06+00:00</time>
      </trkpt>
      <trkpt lat="44.3724" lon="6.38699">
        <ele>1656</ele>
        <time>2025-04-02T07:04:09+00:00</time>
      </trkpt>
      <trkpt lat="44.37225" lon="6.38668">
        <ele>1650</ele>
        <time>2025-04-02T07:04:12+00:00</time>
      </trkpt>
      <trkpt lat="44.37209" lon="6.38641">
        <ele>1647</ele>
        <time>2025-04-02T07:04:15+00:00</time>
      </trkpt>
      <trkpt lat="44.37201" lon="6.38635">
        <ele>1645</ele>
        <time>2025-04-02T07:04:18+00:00</time>
      </trkpt>
      <trkpt lat="44.37198" lon="6.38633">
        <ele>1646</ele>
        <time>2025-04-02T07:04:21+00:00</time>
      </trkpt>
      <trkpt lat="44.37192" lon="6.38631">
        <ele>1646</ele>
        <time>2025-04-02T07:04:24+00:00</time>
      </trkpt>
      <trkpt lat="44.37183" lon="6.3863">
        <ele>1645</ele>
        <time>2025-04-02T07:04:27+00:00</time>
      </trkpt>
      <trkpt lat="44.37171" lon="6.38626">
        <ele>1646</ele>
        <time>2025-04-02T07:04:30+00:00</time>
      </trkpt>
      <trkpt lat="44.3716" lon="6.3862">
        <ele>1645</ele>
        <time>2025-04-02T07:04:33+00:00</time>
      </trkpt>
      <trkpt lat="44.37129" lon="6.38601">
        <ele>1645</ele>
        <time>2025-04-02T07:04:36+00:00</time>
      </trkpt>
      <trkpt lat="44.37099" lon="6.38591">
        <ele>1642</ele>
        <time>2025-04-02T07:04:39+00:00</time>
      </trkpt>
      <trkpt lat="44.37068" lon="6.38578">
        <ele>1640</ele>
        <time>2025-04-02T07:04:42+00:00</time>
      </trkpt>
      <trkpt lat="44.37032" lon="6.3856">
        <ele>1633</ele>
        <time>2025-04-02T07:04:45+00:00</time>
      </trkpt>
      <trkpt lat="44.37008" lon="6.3855">
        <ele>1628</ele>
        <time>2025-04-02T07:04:48+00:00</time>
      </trkpt>
      <trkpt lat="44.37" lon="6.38547">
        <ele>1627</ele>
        <time>2025-04-02T07:04:51+00:00</time>
      </trkpt>
      <trkpt lat="44.36992" lon="6.38547">
        <ele>1627</ele>
        <time>2025-04-02T07:04:54+00:00</time>
      </trkpt>
      <trkpt lat="44.36973" lon="6.38553">
        <ele>1628</ele>
        <time>2025-04-02T07:04:57+00:00</time>
      </trkpt>
      <trkpt lat="44.36957" lon="6.38567">
        <ele>1630</ele>
        <time>2025-04-02T07:05:00+00:00</time>
      </trkpt>
      <trkpt lat="44.36952" lon="6.38577">
        <ele>1633</ele>
        <time>2025-04-02T07:05:03+00:00</time>
      </trkpt>
      <trkpt lat="44.36947" lon="6.38589">
        <ele>1635</ele>
        <time>2025-04-02T07:05:06+00:00</time>
      </trkpt>
      <trkpt lat="44.36944" lon="6.38594">
        <ele>1640</ele>
        <time>2025-04-02T07:05:09+00:00</time>
      </trkpt>
      <trkpt lat="44.3694" lon="6.38597">
        <ele>1640</ele>
        <time>2025-04-02T07:05:12+00:00</time>
      </trkpt>
      <trkpt lat="44.36937" lon="6.38598">
        <ele>1633</ele>
        <time>2025-04-02T07:05:15+00:00</time>
      </trkpt>
      <trkpt lat="44.36934" lon="6.38598">
        <ele>1640</ele>
        <time>2025-04-02T07:05:18+00:00</time>
      </trkpt>
      <trkpt lat="44.36931" lon="6.38597">
        <ele>1640</ele>
        <time>2025-04-02T07:05:21+00:00</time>
      </trkpt>
      <trkpt lat="44.36926" lon="6.38593">
        <ele>1640</ele>
        <time>2025-04-02T07:05:24+00:00</time>
      </trkpt>
      <trkpt lat="44.36922" lon="6.38588">
        <ele>1635</ele>
        <time>2025-04-02T07:05:27+00:00</time>
      </trkpt>
      <trkpt lat="44.36914" lon="6.38571">
        <ele>1633</ele>
        <time>2025-04-02T07:05:30+00:00</time>
      </trkpt>
      <trkpt lat="44.36907" lon="6.3855">
        <ele>1623</ele>
        <time>2025-04-02T07:05:33+00:00</time>
      </trkpt>
      <trkpt lat="44.36901" lon="6.38539">
        <ele>1619</ele>
        <time>2025-04-02T07:05:36+00:00</time>
      </trkpt>
      <trkpt lat="44.36893" lon="6.3853">
        <ele>1615</ele>
        <time>2025-04-02T07:05:39+00:00</time>
      </trkpt>
      <trkpt lat="44.36885" lon="6.38524">
        <ele>1617</ele>
        <time>2025-04-02T07:05:42+00:00</time>
      </trkpt>
      <trkpt lat="44.36858" lon="6.38513">
        <ele>1615</ele>
        <time>2025-04-02T07:05:45+00:00</time>
      </trkpt>
      <trkpt lat="44.36826" lon="6.38505">
        <ele>1612</ele>
        <time>2025-04-02T07:05:48+00:00</time>
      </trkpt>
      <trkpt lat="44.36811" lon="6.38504">
        <ele>1612</ele>
        <time>2025-04-02T07:05:51+00:00</time>
      </trkpt>
      <trkpt lat="44.36797" lon="6.38504">
        <ele>1611</ele>
        <time>2025-04-02T07:05:54+00:00</time>
      </trkpt>
      <trkpt lat="44.3677" lon="6.38506">
        <ele>1608</ele>
        <time>2025-04-02T07:05:57+00:00</time>
      </trkpt>
      <trkpt lat="44.36756" lon="6.38509">
        <ele>1607</ele>
        <time>2025-04-02T07:06:00+00:00</time>
      </trkpt>
      <trkpt lat="44.36731" lon="6.38517">
        <ele>1608</ele>
        <time>2025-04-02T07:06:03+00:00</time>
      </trkpt>
      <trkpt lat="44.36702" lon="6.38532">
        <ele>1608</ele>
        <time>2025-04-02T07:06:06+00:00</time>
      </trkpt>
      <trkpt lat="44.3668" lon="6.38546">
        <ele>1608</ele>
        <time>2025-04-02T07:06:09+00:00</time>
      </trkpt>
      <trkpt lat="44.36676" lon="6.38552">
        <ele>1603</ele>
        <time>2025-04-02T07:06:12+00:00</time>
      </trkpt>
      <trkpt lat="44.36674" lon="6.38559">
        <ele>1603</ele>
        <time>2025-04-02T07:06:15+00:00</time>
      </trkpt>
      <trkpt lat="44.36673" lon="6.38567">
        <ele>1606</ele>
        <time>2025-04-02T07:06:18+00:00</time>
      </trkpt>
      <trkpt lat="44.36673" lon="6.38574">
        <ele>1608</ele>
        <time>2025-04-02T07:06:21+00:00</time>
      </trkpt>
      <trkpt lat="44.36685" lon="6.3862">
        <ele>1607</ele>
        <time>2025-04-02T07:06:24+00:00</time>
      </trkpt>
      <trkpt lat="44.36698" lon="6.38678">
        <ele>1607</ele>
        <time>2025-04-02T07:06:27+00:00</time>
      </trkpt>
      <trkpt lat="44.36706" lon="6.3871">
        <ele>1609</ele>
        <time>2025-04-02T07:06:30+00:00</time>
      </trkpt>
      <trkpt lat="44.36715" lon="6.38744">
        <ele>1610</ele>
        <time>2025-04-02T07:06:33+00:00</time>
      </trkpt>
      <trkpt lat="44.36716" lon="6.38749">
        <ele>1614</ele>
        <time>2025-04-02T07:06:36+00:00</time>
      </trkpt>
      <trkpt lat="44.36712" lon="6.38758">
        <ele>1614</ele>
        <time>2025-04-02T07:06:39+00:00</time>
      </trkpt>
      <trkpt lat="44.36709" lon="6.3876">
        <ele>1611</ele>
        <time>2025-04-02T07:06:42+00:00</time>
      </trkpt>
      <trkpt lat="44.36704" lon="6.38761">
        <ele>1606</ele>
        <time>2025-04-02T07:06:45+00:00</time>
      </trkpt>
      <trkpt lat="44.36697" lon="6.38757">
        <ele>1608</ele>
        <time>2025-04-02T07:06:48+00:00</time>
      </trkpt>
      <trkpt lat="44.36691" lon="6.3875">
        <ele>1607</ele>
        <time>2025-04-02T07:06:51+00:00</time>
      </trkpt>
      <trkpt lat="44.36675" lon="6.38741">
        <ele>1603</ele>
        <time>2025-04-02T07:06:54+00:00</time>
      </trkpt>
      <trkpt lat="44.36664" lon="6.38737">
        <ele>1599</ele>
        <time>2025-04-02T07:06:57+00:00</time>
      </trkpt>
      <trkpt lat="44.36651" lon="6.38735">
        <ele>1598</ele>
        <time>2025-04-02T07:07:00+00:00</time>
      </trkpt>
      <trkpt lat="44.36635" lon="6.38735">
        <ele>1595</ele>
        <time>2025-04-02T07:07:03+00:00</time>
      </trkpt>
      <trkpt lat="44.36624" lon="6.38741">
        <ele>1597</ele>
        <time>2025-04-02T07:07:06+00:00</time>
      </trkpt>
      <trkpt lat="44.36616" lon="6.38747">
        <ele>1596</ele>
        <time>2025-04-02T07:07:09+00:00</time>
      </trkpt>
      <trkpt lat="44.36604" lon="6.38748">
        <ele>1595</ele>
        <time>2025-04-02T07:07:12+00:00</time>
      </trkpt>
      <trkpt lat="44.36595" lon="6.38744">
        <ele>1594</ele>
        <time>2025-04-02T07:07:15+00:00</time>
      </trkpt>
      <trkpt lat="44.3658" lon="6.3874">
        <ele>1588</ele>
        <time>2025-04-02T07:07:18+00:00</time>
      </trkpt>
      <trkpt lat="44.36558" lon="6.38721">
        <ele>1584</ele>
        <time>2025-04-02T07:07:21+00:00</time>
      </trkpt>
      <trkpt lat="44.36547" lon="6.38715">
        <ele>1581</ele>
        <time>2025-04-02T07:07:24+00:00</time>
      </trkpt>
      <trkpt lat="44.3654" lon="6.38713">
        <ele>1580</ele>
        <time>2025-04-02T07:07:27+00:00</time>
      </trkpt>
      <trkpt lat="44.36533" lon="6.38712">
        <ele>1580</ele>
        <time>2025-04-02T07:07:30+00:00</time>
      </trkpt>
      <trkpt lat="44.36526" lon="6.38713">
        <ele>1579</ele>
        <time>2025-04-02T07:07:33+00:00</time>
      </trkpt>
      <trkpt lat="44.36514" lon="6.38718">
        <ele>1579</ele>
        <time>2025-04-02T07:07:36+00:00</time>
      </trkpt>
      <trkpt lat="44.36497" lon="6.38731">
        <ele>1579</ele>
        <time>2025-04-02T07:07:39+00:00</time>
      </trkpt>
      <trkpt lat="44.36485" lon="6.38747">
        <ele>1580</ele>
        <time>2025-04-02T07:07:42+00:00</time>
      </trkpt>
      <trkpt lat="44.36465" lon="6.3877">
        <ele>1579</ele>
        <time>2025-04-02T07:07:45+00:00</time>
      </trkpt>
      <trkpt lat="44.36458" lon="6.3878">
        <ele>1578</ele>
        <time>2025-04-02T07:07:48+00:00</time>
      </trkpt>
      <trkpt lat="44.36454" lon="6.3879">
        <ele>1580</ele>
        <time>2025-04-02T07:07:51+00:00</time>
      </trkpt>
      <trkpt lat="44.36443" lon="6.38823">
        <ele>1585</ele>
        <time>2025-04-02T07:07:54+00:00</time>
      </trkpt>
      <trkpt lat="44.36435" lon="6.38841">
        <ele>1587</ele>
        <time>2025-04-02T07:07:57+00:00</time>
      </trkpt>
      <trkpt lat="44.36432" lon="6.38849">
        <ele>1587</ele>
        <time>2025-04-02T07:08:00+00:00</time>
      </trkpt>
      <trkpt lat="44.3643" lon="6.38859">
        <ele>1587</ele>
        <time>2025-04-02T07:08:03+00:00</time>
      </trkpt>
      <trkpt lat="44.36428" lon="6.38866">
        <ele>1590</ele>
        <time>2025-04-02T07:08:06+00:00</time>
      </trkpt>
      <trkpt lat="44.36428" lon="6.38886">
        <ele>1593</ele>
        <time>2025-04-02T07:08:09+00:00</time>
      </trkpt>
      <trkpt lat="44.36427" lon="6.3889">
        <ele>1593</ele>
        <time>2025-04-02T07:08:12+00:00</time>
      </trkpt>
      <trkpt lat="44.36424" lon="6.38896">
        <ele>1595</ele>
        <time>2025-04-02T07:08:15+00:00</time>
      </trkpt>
      <trkpt lat="44.36418" lon="6.38899">
        <ele>1595</ele>
        <time>2025-04-02T07:08:18+00:00</time>
      </trkpt>
      <trkpt lat="44.36412" lon="6.38899">
        <ele>1590</ele>
        <time>2025-04-02T07:08:21+00:00</time>
      </trkpt>
      <trkpt lat="44.36407" lon="6.38895">
        <ele>1595</ele>
        <time>2025-04-02T07:08:24+00:00</time>
      </trkpt>
      <trkpt lat="44.36404" lon="6.38892">
        <ele>1595</ele>
        <time>2025-04-02T07:08:27+00:00</time>
      </trkpt>
      <trkpt lat="44.36401" lon="6.38887">
        <ele>1592</ele>
        <time>2025-04-02T07:08:30+00:00</time>
      </trkpt>
      <trkpt lat="44.36385" lon="6.38868">
        <ele>1588</ele>
        <time>2025-04-02T07:08:33+00:00</time>
      </trkpt>
      <trkpt lat="44.36376" lon="6.3886">
        <ele>1586</ele>
        <time>2025-04-02T07:08:36+00:00</time>
      </trkpt>
      <trkpt lat="44.36357" lon="6.38846">
        <ele>1588</ele>
        <time>2025-04-02T07:08:39+00:00</time>
      </trkpt>
      <trkpt lat="44.36351" lon="6.38844">
        <ele>1585</ele>
        <time>2025-04-02T07:08:42+00:00</time>
      </trkpt>
      <trkpt lat="44.36345" lon="6.38844">
        <ele>1586</ele>
        <time>2025-04-02T07:08:45+00:00</time>
      </trkpt>
      <trkpt lat="44.36318" lon="6.3885">
        <ele>1589</ele>
        <time>2025-04-02T07:08:48+00:00</time>
      </trkpt>
      <trkpt lat="44.36308" lon="6.38849">
        <ele>1591</ele>
        <time>2025-04-02T07:08:51+00:00</time>
      </trkpt>
      <trkpt lat="44.36302" lon="6.38847">
        <ele>1591</ele>
        <time>2025-04-02T07:08:54+00:00</time>
      </trkpt>
      <trkpt lat="44.36294" lon="6.38843">
        <ele>1588</ele>
        <time>2025-04-02T07:08:57+00:00</time>
      </trkpt>
      <trkpt lat="44.36289" lon="6.38838">
        <ele>1591</ele>
        <time>2025-04-02T07:09:00+00:00</time>
      </trkpt>
      <trkpt lat="44.36286" lon="6.38834">
        <ele>1591</ele>
        <time>2025-04-02T07:09:03+00:00</time>
      </trkpt>
      <trkpt lat="44.36269" lon="6.38817">
        <ele>1588</ele>
        <time>2025-04-02T07:09:06+00:00</time>
      </trkpt>
      <trkpt lat="44.36248" lon="6.38802">
        <ele>1588</ele>
        <time>2025-04-02T07:09:09+00:00</time>
      </trkpt>
      <trkpt lat="44.36241" lon="6.38798">
        <ele>1585</ele>
        <time>2025-04-02T07:09:12+00:00</time>
      </trkpt>
      <trkpt lat="44.36233" lon="6.38796">
        <ele>1586</ele>
        <time>2025-04-02T07:09:15+00:00</time>
      </trkpt>
      <trkpt lat="44.36227" lon="6.38797">
        <ele>1588</ele>
        <time>2025-04-02T07:09:18+00:00</time>
      </trkpt>
      <trkpt lat="44.36197" lon="6.38805">
        <ele>1588</ele>
        <time>2025-04-02T07:09:21+00:00</time>
      </trkpt>
      <trkpt lat="44.36171" lon="6.38819">
        <ele>1588</ele>
        <time>2025-04-02T07:09:24+00:00</time>
      </trkpt>
      <trkpt lat="44.36154" lon="6.3883">
        <ele>1587</ele>
        <time>2025-04-02T07:09:27+00:00</time>
      </trkpt>
      <trkpt lat="44.36146" lon="6.38836">
        <ele>1590</ele>
        <time>2025-04-02T07:09:30+00:00</time>
      </trkpt>
      <trkpt lat="44.36136" lon="6.38848">
        <ele>1591</ele>
        <time>2025-04-02T07:09:33+00:00</time>
      </trkpt>
      <trkpt lat="44.36134" lon="6.38852">
        <ele>1593</ele>
        <time>2025-04-02T07:09:36+00:00</time>
      </trkpt>
      <trkpt lat="44.36131" lon="6.38856">
        <ele>1593</ele>
        <time>2025-04-02T07:09:39+00:00</time>
      </trkpt>
      <trkpt lat="44.36126" lon="6.3886">
        <ele>1592</ele>
        <time>2025-04-02T07:09:42+00:00</time>
      </trkpt>
      <trkpt lat="44.36122" lon="6.38862">
        <ele>1595</ele>
        <time>2025-04-02T07:09:45+00:00</time>
      </trkpt>
      <trkpt lat="44.36115" lon="6.38864">
        <ele>1594</ele>
        <time>2025-04-02T07:09:48+00:00</time>
      </trkpt>
      <trkpt lat="44.36111" lon="6.38864">
        <ele>1591</ele>
        <time>2025-04-02T07:09:51+00:00</time>
      </trkpt>
      <trkpt lat="44.36108" lon="6.38863">
        <ele>1593</ele>
        <time>2025-04-02T07:09:54+00:00</time>
      </trkpt>
      <trkpt lat="44.36084" lon="6.38868">
        <ele>1590</ele>
        <time>2025-04-02T07:09:57+00:00</time>
      </trkpt>
      <trkpt lat="44.36079" lon="6.38867">
        <ele>1588</ele>
        <time>2025-04-02T07:10:00+00:00</time>
      </trkpt>
      <trkpt lat="44.36074" lon="6.38868">
        <ele>1588</ele>
        <time>2025-04-02T07:10:03+00:00</time>
      </trkpt>
      <trkpt lat="44.36066" lon="6.38871">
        <ele>1587</ele>
        <time>2025-04-02T07:10:06+00:00</time>
      </trkpt>
      <trkpt lat="44.36059" lon="6.38876">
        <ele>1588</ele>
        <time>2025-04-02T07:10:09+00:00</time>
      </trkpt>
      <trkpt lat="44.36049" lon="6.38888">
        <ele>1585</ele>
        <time>2025-04-02T07:10:12+00:00</time>
      </trkpt>
      <trkpt lat="44.36039" lon="6.3891">
        <ele>1588</ele>
        <time>2025-04-02T07:10:15+00:00</time>
      </trkpt>
      <trkpt lat="44.36029" lon="6.38935">
        <ele>1588</ele>
        <time>2025-04-02T07:10:18+00:00</time>
      </trkpt>
      <trkpt lat="44.36025" lon="6.38941">
        <ele>1590</ele>
        <time>2025-04-02T07:10:21+00:00</time>
      </trkpt>
      <trkpt lat="44.36019" lon="6.38954">
        <ele>1589</ele>
        <time>2025-04-02T07:10:24+00:00</time>
      </trkpt>
      <trkpt lat="44.36017" lon="6.38961">
        <ele>1590</ele>
        <time>2025-04-02T07:10:27+00:00</time>
      </trkpt>
      <trkpt lat="44.36016" lon="6.38968">
        <ele>1590</ele>
        <time>2025-04-02T07:10:30+00:00</time>
      </trkpt>
      <trkpt lat="44.36016" lon="6.38973">
        <ele>1591</ele>
        <time>2025-04-02T07:10:33+00:00</time>
      </trkpt>
      <trkpt lat="44.36012" lon="6.39002">
        <ele>1589</ele>
        <time>2025-04-02T07:10:36+00:00</time>
      </trkpt>
      <trkpt lat="44.36011" lon="6.39004">
        <ele>1595</ele>
        <time>2025-04-02T07:10:39+00:00</time>
      </trkpt>
      <trkpt lat="44.36007" lon="6.39004">
        <ele>1592</ele>
        <time>2025-04-02T07:10:42+00:00</time>
      </trkpt>
      <trkpt lat="44.35999" lon="6.39002">
        <ele>1590</ele>
        <time>2025-04-02T07:10:45+00:00</time>
      </trkpt>
      <trkpt lat="44.35981" lon="6.38993">
        <ele>1588</ele>
        <time>2025-04-02T07:10:48+00:00</time>
      </trkpt>
      <trkpt lat="44.35975" lon="6.38991">
        <ele>1585</ele>
        <time>2025-04-02T07:10:51+00:00</time>
      </trkpt>
      <trkpt lat="44.3597" lon="6.38991">
        <ele>1584</ele>
        <time>2025-04-02T07:10:54+00:00</time>
      </trkpt>
      <trkpt lat="44.35966" lon="6.38993">
        <ele>1584</ele>
        <time>2025-04-02T07:10:57+00:00</time>
      </trkpt>
      <trkpt lat="44.35953" lon="6.39006">
        <ele>1587</ele>
        <time>2025-04-02T07:11:00+00:00</time>
      </trkpt>
      <trkpt lat="44.35947" lon="6.39022">
        <ele>1585</ele>
        <time>2025-04-02T07:11:03+00:00</time>
      </trkpt>
      <trkpt lat="44.35944" lon="6.39036">
        <ele>1587</ele>
        <time>2025-04-02T07:11:06+00:00</time>
      </trkpt>
      <trkpt lat="44.3594" lon="6.39048">
        <ele>1588</ele>
        <time>2025-04-02T07:11:09+00:00</time>
      </trkpt>
      <trkpt lat="44.35937" lon="6.39053">
        <ele>1589</ele>
        <time>2025-04-02T07:11:12+00:00</time>
      </trkpt>
      <trkpt lat="44.35933" lon="6.39057">
        <ele>1589</ele>
        <time>2025-04-02T07:11:15+00:00</time>
      </trkpt>
      <trkpt lat="44.35912" lon="6.39066">
        <ele>1586</ele>
        <time>2025-04-02T07:11:18+00:00</time>
      </trkpt>
      <trkpt lat="44.3588" lon="6.39081">
        <ele>1586</ele>
        <time>2025-04-02T07:11:21+00:00</time>
      </trkpt>
      <trkpt lat="44.35868" lon="6.39088">
        <ele>1586</ele>
        <time>2025-04-02T07:11:24+00:00</time>
      </trkpt>
      <trkpt lat="44.35858" lon="6.39104">
        <ele>1587</ele>
        <time>2025-04-02T07:11:27+00:00</time>
      </trkpt>
      <trkpt lat="44.35849" lon="6.39115">
        <ele>1587</ele>
        <time>2025-04-02T07:11:30+00:00</time>
      </trkpt>
    </trkseg>
  </trk>
</gpx>
